createdAt,value
2022-08-22T00:00:15.873Z,992.85
2022-08-22T00:01:15.796Z,992.86
2022-08-22T00:02:15.752Z,992.87
2022-08-22T00:02:41.709Z,991.95
2022-08-22T00:02:47.781Z,992.04
2022-08-22T00:02:57.377Z,992.86
2022-08-22T00:03:04.818Z,992.94
2022-08-22T00:03:06.814Z,992.83
2022-08-22T00:03:15.976Z,992.88
2022-08-22T00:03:18.451Z,992.88
2022-08-22T00:04:16.683Z,992.93
2022-08-22T00:05:15.672Z,992.90
2022-08-22T00:06:15.675Z,992.92
2022-08-22T00:07:15.700Z,992.93
2022-08-22T00:08:15.647Z,992.89
2022-08-22T00:09:15.639Z,992.92
2022-08-22T00:10:22.845Z,992.88
2022-08-22T00:11:16.768Z,992.85
2022-08-22T00:12:15.616Z,992.85
2022-08-22T00:13:15.615Z,992.89
2022-08-22T00:14:15.611Z,992.91
2022-08-22T00:15:31.715Z,992.82
2022-08-22T00:16:16.591Z,992.93
2022-08-22T00:17:15.663Z,992.83
2022-08-22T00:18:15.575Z,992.86
2022-08-22T00:19:15.575Z,992.86
2022-08-22T00:20:15.571Z,992.89
2022-08-22T00:21:15.561Z,992.85
2022-08-22T00:22:15.556Z,992.90
2022-08-22T00:23:15.552Z,992.98
2022-08-22T00:24:15.536Z,992.89
2022-08-22T00:25:25.853Z,992.93
2022-08-22T00:26:16.556Z,992.90
2022-08-22T00:27:15.535Z,992.96
2022-08-22T00:28:15.504Z,992.92
2022-08-22T00:29:15.505Z,992.90
2022-08-22T00:30:15.496Z,992.95
2022-08-22T00:31:15.511Z,992.97
2022-08-22T00:32:15.503Z,992.97
2022-08-22T00:33:15.471Z,992.92
2022-08-22T00:34:15.464Z,992.94
2022-08-22T00:35:15.460Z,992.91
2022-08-22T00:36:15.475Z,992.93
2022-08-22T00:37:15.446Z,992.94
2022-08-22T00:38:15.461Z,992.93
2022-08-22T00:39:15.427Z,993.00
2022-08-22T00:40:15.457Z,993.02
2022-08-22T00:41:15.420Z,992.99
2022-08-22T00:42:15.415Z,992.97
2022-08-22T00:43:16.420Z,992.96
2022-08-22T00:44:15.395Z,992.96
2022-08-22T00:45:15.395Z,992.96
2022-08-22T00:46:15.387Z,992.95
2022-08-22T00:47:15.379Z,992.98
2022-08-22T00:48:15.368Z,992.89
2022-08-22T00:49:15.379Z,992.90
2022-08-22T00:50:15.358Z,992.95
2022-08-22T00:51:15.336Z,992.98
2022-08-22T00:52:16.345Z,992.97
2022-08-22T00:53:15.335Z,992.97
2022-08-22T00:54:18.000Z,992.96
2022-08-22T00:55:15.319Z,992.96
2022-08-22T00:56:15.315Z,992.95
2022-08-22T00:57:15.307Z,992.92
2022-08-22T00:58:15.303Z,992.92
2022-08-22T00:59:23.738Z,992.96
2022-08-22T01:00:16.289Z,992.92
2022-08-22T01:01:15.324Z,992.96
2022-08-22T01:02:15.268Z,992.95
2022-08-22T01:03:15.254Z,992.96
2022-08-22T01:04:15.271Z,992.94
2022-08-22T01:05:15.256Z,992.91
2022-08-22T01:06:15.239Z,992.89
2022-08-22T01:07:15.235Z,992.88
2022-08-22T01:08:15.227Z,992.95
2022-08-22T01:09:15.215Z,992.92
2022-08-22T01:10:15.235Z,992.95
2022-08-22T01:11:15.204Z,992.93
2022-08-22T01:12:15.195Z,992.92
2022-08-22T01:13:15.190Z,992.92
2022-08-22T01:14:15.187Z,992.88
2022-08-22T01:15:15.189Z,992.92
2022-08-22T01:16:15.167Z,992.93
2022-08-22T01:17:15.163Z,992.89
2022-08-22T01:18:15.167Z,992.86
2022-08-22T01:19:15.148Z,992.92
2022-08-22T01:20:15.142Z,992.95
2022-08-22T01:21:15.147Z,993.02
2022-08-22T01:22:16.136Z,993.03
2022-08-22T01:23:15.122Z,992.97
2022-08-22T01:24:15.114Z,993.04
2022-08-22T01:25:15.111Z,992.95
2022-08-22T01:26:15.120Z,993.01
2022-08-22T01:27:15.099Z,992.96
2022-08-22T01:28:15.079Z,992.95
2022-08-22T01:29:15.067Z,992.92
2022-08-22T01:30:15.071Z,992.87
2022-08-22T01:31:15.076Z,992.87
2022-08-22T01:32:15.057Z,992.88
2022-08-22T01:33:15.059Z,992.84
2022-08-22T01:34:15.038Z,992.92
2022-08-22T01:35:15.031Z,992.87
2022-08-22T01:36:15.027Z,992.88
2022-08-22T01:37:15.035Z,992.86
2022-08-22T01:38:15.006Z,992.88
2022-08-22T01:39:15.011Z,992.90
2022-08-22T01:40:15.078Z,992.90
2022-08-22T01:41:14.986Z,992.87
2022-08-22T01:42:15.241Z,992.89
2022-08-22T01:43:14.974Z,992.90
2022-08-22T01:44:14.971Z,992.89
2022-08-22T01:45:14.967Z,992.91
2022-08-22T01:46:14.958Z,992.90
2022-08-22T01:47:14.967Z,992.93
2022-08-22T01:48:14.944Z,992.89
2022-08-22T01:49:14.937Z,992.90
2022-08-22T01:50:14.926Z,992.89
2022-08-22T01:51:14.922Z,992.87
2022-08-22T01:52:14.930Z,992.90
2022-08-22T01:53:14.923Z,992.90
2022-08-22T01:54:14.910Z,992.95
2022-08-22T01:55:14.906Z,992.91
2022-08-22T01:56:14.894Z,992.89
2022-08-22T01:57:14.882Z,992.91
2022-08-22T01:58:15.895Z,992.97
2022-08-22T01:59:14.873Z,992.95
2022-08-22T02:00:14.883Z,992.95
2022-08-22T02:01:14.905Z,992.93
2022-08-22T02:02:14.850Z,992.94
2022-08-22T02:03:14.854Z,992.92
2022-08-22T02:04:14.835Z,992.95
2022-08-22T02:05:14.827Z,992.90
2022-08-22T02:06:14.831Z,992.89
2022-08-22T02:07:14.818Z,992.87
2022-08-22T02:08:14.823Z,992.90
2022-08-22T02:09:14.809Z,992.90
2022-08-22T02:10:14.806Z,992.93
2022-08-22T02:11:14.798Z,992.95
2022-08-22T02:12:21.853Z,992.91
2022-08-22T02:13:15.804Z,992.95
2022-08-22T02:14:14.771Z,992.96
2022-08-22T02:15:14.767Z,992.90
2022-08-22T02:16:14.766Z,992.95
2022-08-22T02:17:14.762Z,992.95
2022-08-22T02:18:14.779Z,992.96
2022-08-22T02:19:14.730Z,992.96
2022-08-22T02:20:14.740Z,992.96
2022-08-22T02:21:14.726Z,992.95
2022-08-22T02:22:14.733Z,992.93
2022-08-22T02:23:14.717Z,993.00
2022-08-22T02:24:14.730Z,992.95
2022-08-22T02:25:14.714Z,992.95
2022-08-22T02:26:14.702Z,992.89
2022-08-22T02:27:14.698Z,992.88
2022-08-22T02:28:14.690Z,992.88
2022-08-22T02:29:14.698Z,992.85
2022-08-22T02:30:14.674Z,992.86
2022-08-22T02:31:16.652Z,992.88
2022-08-22T02:32:14.667Z,992.92
2022-08-22T02:33:14.654Z,992.89
2022-08-22T02:34:14.666Z,992.89
2022-08-22T02:35:14.644Z,992.87
2022-08-22T02:36:14.660Z,992.89
2022-08-22T02:37:14.638Z,992.83
2022-08-22T02:38:14.643Z,992.83
2022-08-22T02:39:14.618Z,992.83
2022-08-22T02:40:14.773Z,992.87
2022-08-22T02:41:14.626Z,992.86
2022-08-22T02:42:14.610Z,992.87
2022-08-22T02:43:14.598Z,992.82
2022-08-22T02:44:14.590Z,992.83
2022-08-22T02:45:14.575Z,992.91
2022-08-22T02:46:14.599Z,992.89
2022-08-22T02:47:14.574Z,992.88
2022-08-22T02:48:14.570Z,992.86
2022-08-22T02:49:14.558Z,992.85
2022-08-22T02:50:14.537Z,992.85
2022-08-22T02:51:14.547Z,992.78
2022-08-22T02:52:14.543Z,992.83
2022-08-22T02:53:14.534Z,992.86
2022-08-22T02:54:14.518Z,992.85
2022-08-22T02:55:14.510Z,992.82
2022-08-22T02:56:14.516Z,992.85
2022-08-22T02:57:14.750Z,992.84
2022-08-22T02:58:14.489Z,992.86
2022-08-22T02:59:15.499Z,992.87
2022-08-22T03:00:31.918Z,992.85
2022-08-22T03:01:15.522Z,992.80
2022-08-22T03:02:14.475Z,992.84
2022-08-22T03:03:14.464Z,992.79
2022-08-22T03:04:14.462Z,992.84
2022-08-22T03:05:14.450Z,992.89
2022-08-22T03:06:14.439Z,992.86
2022-08-22T03:07:15.450Z,992.87
2022-08-22T03:08:14.450Z,992.86
2022-08-22T03:09:14.426Z,992.83
2022-08-22T03:10:14.426Z,992.87
2022-08-22T03:11:14.421Z,992.81
2022-08-22T03:12:14.405Z,992.83
2022-08-22T03:13:14.407Z,992.79
2022-08-22T03:14:14.399Z,992.79
2022-08-22T03:15:14.410Z,992.77
2022-08-22T03:16:14.386Z,992.81
2022-08-22T03:17:14.393Z,992.80
2022-08-22T03:18:14.374Z,992.75
2022-08-22T03:19:18.870Z,992.80
2022-08-22T03:20:14.362Z,992.79
2022-08-22T03:21:14.361Z,992.84
2022-08-22T03:22:14.349Z,992.79
2022-08-22T03:23:14.355Z,992.79
2022-08-22T03:24:14.335Z,992.80
2022-08-22T03:25:14.326Z,992.79
2022-08-22T03:26:14.313Z,992.77
2022-08-22T03:27:14.333Z,992.79
2022-08-22T03:28:15.326Z,992.76
2022-08-22T03:29:14.302Z,992.80
2022-08-22T03:30:14.302Z,992.76
2022-08-22T03:31:14.298Z,992.79
2022-08-22T03:32:14.290Z,992.79
2022-08-22T03:33:14.302Z,992.79
2022-08-22T03:34:14.262Z,992.71
2022-08-22T03:35:14.266Z,992.73
2022-08-22T03:36:14.260Z,992.68
2022-08-22T03:37:14.247Z,992.73
2022-08-22T03:38:15.278Z,992.73
2022-08-22T03:39:17.236Z,992.71
2022-08-22T03:40:14.298Z,992.65
2022-08-22T03:41:14.238Z,992.71
2022-08-22T03:42:14.234Z,992.73
2022-08-22T03:43:14.209Z,992.83
2022-08-22T03:44:14.226Z,992.78
2022-08-22T03:45:14.218Z,992.77
2022-08-22T03:46:14.185Z,992.86
2022-08-22T03:47:14.213Z,992.81
2022-08-22T03:48:14.198Z,992.86
2022-08-22T03:49:14.198Z,992.89
2022-08-22T03:50:14.177Z,992.85
2022-08-22T03:51:14.169Z,992.84
2022-08-22T03:52:14.158Z,992.89
2022-08-22T03:53:18.514Z,992.85
2022-08-22T03:54:14.183Z,992.88
2022-08-22T03:55:14.142Z,992.90
2022-08-22T03:56:14.138Z,992.87
2022-08-22T03:57:14.136Z,992.90
2022-08-22T03:58:27.638Z,992.88
2022-08-22T03:59:15.150Z,992.95
2022-08-22T04:00:14.117Z,992.92
2022-08-22T04:01:14.142Z,992.92
2022-08-22T04:02:26.205Z,992.89
2022-08-22T04:03:15.105Z,992.90
2022-08-22T04:04:14.086Z,992.93
2022-08-22T04:05:14.094Z,992.94
2022-08-22T04:06:14.086Z,992.92
2022-08-22T04:07:32.201Z,992.93
2022-08-22T04:08:15.065Z,992.94
2022-08-22T04:09:14.077Z,992.94
2022-08-22T04:10:14.063Z,992.99
2022-08-22T04:11:14.042Z,992.96
2022-08-22T04:12:14.046Z,992.96
2022-08-22T04:13:14.035Z,992.98
2022-08-22T04:14:14.025Z,992.99
2022-08-22T04:15:14.042Z,993.00
2022-08-22T04:16:14.009Z,992.96
2022-08-22T04:17:14.005Z,992.99
2022-08-22T04:18:13.997Z,992.92
2022-08-22T04:19:13.987Z,992.87
2022-08-22T04:20:16.614Z,992.95
2022-08-22T04:21:13.977Z,992.94
2022-08-22T04:22:13.971Z,992.94
2022-08-22T04:23:13.961Z,992.94
2022-08-22T04:24:13.977Z,993.00
2022-08-22T04:25:13.961Z,993.00
2022-08-22T04:26:13.970Z,993.02
2022-08-22T04:27:13.954Z,993.01
2022-08-22T04:28:13.942Z,993.01
2022-08-22T04:29:13.937Z,993.08
2022-08-22T04:30:13.930Z,993.10
2022-08-22T04:31:13.945Z,993.11
2022-08-22T04:32:14.754Z,993.03
2022-08-22T04:33:14.905Z,993.04
2022-08-22T04:34:13.901Z,993.09
2022-08-22T04:35:13.901Z,993.10
2022-08-22T04:36:13.894Z,993.12
2022-08-22T04:37:13.898Z,993.15
2022-08-22T04:38:13.873Z,993.11
2022-08-22T04:39:13.864Z,993.17
2022-08-22T04:40:13.926Z,993.20
2022-08-22T04:41:13.853Z,993.17
2022-08-22T04:42:31.656Z,993.20
2022-08-22T04:43:15.849Z,993.21
2022-08-22T04:44:13.841Z,993.23
2022-08-22T04:45:13.850Z,993.25
2022-08-22T04:46:13.837Z,993.25
2022-08-22T04:47:13.841Z,993.31
2022-08-22T04:48:13.837Z,993.34
2022-08-22T04:49:13.813Z,993.31
2022-08-22T04:50:13.809Z,993.34
2022-08-22T04:51:13.802Z,993.33
2022-08-22T04:52:13.849Z,993.36
2022-08-22T04:53:13.799Z,993.38
2022-08-22T04:54:13.788Z,993.43
2022-08-22T04:55:13.782Z,993.39
2022-08-22T04:56:13.776Z,993.38
2022-08-22T04:57:13.768Z,993.38
2022-08-22T04:58:13.775Z,993.32
2022-08-22T04:59:13.757Z,993.38
2022-08-22T05:00:13.750Z,993.36
2022-08-22T05:01:13.783Z,993.39
2022-08-22T05:02:13.736Z,993.36
2022-08-22T05:03:13.758Z,993.35
2022-08-22T05:04:13.739Z,993.31
2022-08-22T05:05:13.996Z,993.37
2022-08-22T05:06:13.710Z,993.38
2022-08-22T05:07:13.699Z,993.42
2022-08-22T05:08:13.723Z,993.41
2022-08-22T05:09:16.191Z,993.42
2022-08-22T05:10:14.684Z,993.39
2022-08-22T05:11:13.679Z,993.40
2022-08-22T05:12:13.676Z,993.41
2022-08-22T05:13:13.671Z,993.39
2022-08-22T05:14:13.675Z,993.35
2022-08-22T05:15:13.659Z,993.37
2022-08-22T05:16:13.650Z,993.35
2022-08-22T05:17:16.937Z,993.34
2022-08-22T05:18:13.635Z,993.36
2022-08-22T05:19:16.785Z,993.38
2022-08-22T05:20:14.633Z,993.34
2022-08-22T05:21:14.638Z,993.38
2022-08-22T05:22:13.615Z,993.35
2022-08-22T05:23:17.060Z,993.41
2022-08-22T05:24:13.610Z,993.37
2022-08-22T05:25:13.602Z,993.34
2022-08-22T05:26:13.587Z,993.31
2022-08-22T05:27:13.575Z,993.37
2022-08-22T05:28:13.571Z,993.38
2022-08-22T05:29:13.567Z,993.35
2022-08-22T05:30:13.570Z,993.37
2022-08-22T05:31:13.561Z,993.33
2022-08-22T05:32:13.553Z,993.37
2022-08-22T05:33:13.539Z,993.42
2022-08-22T05:34:13.544Z,993.37
2022-08-22T05:35:13.550Z,993.38
2022-08-22T05:36:13.527Z,993.38
2022-08-22T05:37:13.516Z,993.42
2022-08-22T05:38:13.514Z,993.41
2022-08-22T05:39:13.508Z,993.38
2022-08-22T05:40:13.586Z,993.38
2022-08-22T05:41:13.501Z,993.35
2022-08-22T05:42:13.494Z,993.43
2022-08-22T05:43:13.495Z,993.41
2022-08-22T05:44:13.485Z,993.44
2022-08-22T05:45:13.474Z,993.39
2022-08-22T05:46:13.475Z,993.40
2022-08-22T05:47:13.467Z,993.41
2022-08-22T05:48:13.457Z,993.44
2022-08-22T05:49:13.446Z,993.45
2022-08-22T05:50:13.447Z,993.44
2022-08-22T05:51:13.443Z,993.47
2022-08-22T05:52:13.424Z,993.47
2022-08-22T05:53:13.423Z,993.46
2022-08-22T05:54:13.423Z,993.45
2022-08-22T05:55:13.411Z,993.47
2022-08-22T05:56:13.432Z,993.45
2022-08-22T05:57:13.415Z,993.40
2022-08-22T05:58:13.399Z,993.41
2022-08-22T05:59:13.401Z,993.43
2022-08-22T06:00:13.388Z,993.41
2022-08-22T06:01:13.390Z,993.42
2022-08-22T06:02:13.457Z,993.41
2022-08-22T06:03:13.369Z,993.48
2022-08-22T06:04:13.370Z,993.43
2022-08-22T06:05:13.350Z,993.44
2022-08-22T06:06:13.359Z,993.48
2022-08-22T06:07:13.370Z,993.50
2022-08-22T06:08:13.326Z,993.42
2022-08-22T06:09:13.321Z,993.49
2022-08-22T06:10:13.317Z,993.49
2022-08-22T06:11:13.305Z,993.49
2022-08-22T06:12:21.593Z,993.52
2022-08-22T06:13:15.297Z,993.47
2022-08-22T06:14:14.292Z,993.51
2022-08-22T06:15:13.289Z,993.52
2022-08-22T06:16:13.277Z,993.50
2022-08-22T06:17:13.297Z,993.47
2022-08-22T06:18:13.261Z,993.43
2022-08-22T06:19:19.193Z,993.46
2022-08-22T06:20:14.241Z,993.46
2022-08-22T06:21:14.245Z,993.35
2022-08-22T06:22:18.784Z,993.40
2022-08-22T06:23:14.228Z,993.42
2022-08-22T06:24:13.232Z,993.41
2022-08-22T06:25:13.216Z,993.42
2022-08-22T06:26:20.455Z,993.38
2022-08-22T06:27:14.216Z,993.42
2022-08-22T06:28:13.185Z,993.39
2022-08-22T06:29:13.181Z,993.43
2022-08-22T06:30:13.169Z,993.46
2022-08-22T06:31:13.183Z,993.48
2022-08-22T06:32:13.157Z,993.44
2022-08-22T06:33:13.238Z,993.43
2022-08-22T06:34:13.152Z,993.43
2022-08-22T06:35:13.141Z,993.45
2022-08-22T06:36:13.124Z,993.44
2022-08-22T06:37:13.132Z,993.46
2022-08-22T06:38:13.129Z,993.44
2022-08-22T06:39:13.105Z,993.40
2022-08-22T06:40:13.150Z,993.46
2022-08-22T06:41:13.094Z,993.45
2022-08-22T06:42:16.487Z,993.44
2022-08-22T06:43:14.099Z,993.47
2022-08-22T06:44:13.073Z,993.50
2022-08-22T06:45:13.061Z,993.45
2022-08-22T06:46:13.057Z,993.40
2022-08-22T06:47:13.053Z,993.42
2022-08-22T06:48:13.050Z,993.43
2022-08-22T06:49:13.038Z,993.41
2022-08-22T06:50:13.933Z,993.44
2022-08-22T06:51:13.022Z,993.45
2022-08-22T06:52:13.007Z,993.41
2022-08-22T06:53:13.021Z,993.38
2022-08-22T06:54:12.989Z,993.45
2022-08-22T06:55:12.990Z,993.45
2022-08-22T06:56:13.000Z,993.48
2022-08-22T06:57:12.984Z,993.44
2022-08-22T06:58:12.974Z,993.43
2022-08-22T06:59:12.970Z,993.43
2022-08-22T07:00:12.954Z,993.49
2022-08-22T07:01:12.969Z,993.50
2022-08-22T07:02:13.058Z,993.49
2022-08-22T07:03:12.938Z,993.45
2022-08-22T07:04:12.930Z,993.49
2022-08-22T07:05:12.922Z,993.44
2022-08-22T07:06:12.930Z,993.44
2022-08-22T07:07:12.914Z,993.49
2022-08-22T07:08:12.905Z,993.49
2022-08-22T07:09:12.906Z,993.50
2022-08-22T07:10:12.890Z,993.44
2022-08-22T07:11:12.925Z,993.38
2022-08-22T07:12:12.886Z,993.45
2022-08-22T07:13:12.869Z,993.41
2022-08-22T07:14:12.862Z,993.43
2022-08-22T07:15:12.866Z,993.44
2022-08-22T07:16:12.853Z,993.33
2022-08-22T07:17:12.859Z,993.35
2022-08-22T07:18:12.834Z,993.39
2022-08-22T07:19:13.834Z,993.44
2022-08-22T07:20:12.822Z,993.41
2022-08-22T07:21:12.822Z,993.42
2022-08-22T07:22:12.824Z,993.39
2022-08-22T07:23:12.801Z,993.41
2022-08-22T07:24:12.794Z,993.40
2022-08-22T07:25:12.798Z,993.46
2022-08-22T07:26:12.790Z,993.35
2022-08-22T07:27:12.794Z,993.37
2022-08-22T07:28:12.791Z,993.34
2022-08-22T07:29:12.769Z,993.38
2022-08-22T07:30:12.896Z,993.40
2022-08-22T07:31:12.877Z,993.42
2022-08-22T07:32:12.753Z,993.38
2022-08-22T07:33:25.214Z,993.33
2022-08-22T07:34:13.766Z,993.40
2022-08-22T07:35:12.731Z,993.39
2022-08-22T07:36:12.723Z,993.37
2022-08-22T07:37:12.728Z,993.40
2022-08-22T07:38:12.701Z,993.40
2022-08-22T07:39:12.718Z,993.37
2022-08-22T07:40:12.719Z,993.40
2022-08-22T07:41:12.708Z,993.42
2022-08-22T07:42:12.696Z,993.46
2022-08-22T07:43:12.679Z,993.46
2022-08-22T07:44:12.667Z,993.45
2022-08-22T07:45:12.661Z,993.49
2022-08-22T07:46:12.657Z,993.49
2022-08-22T07:47:12.651Z,993.46
2022-08-22T07:48:17.221Z,993.50
2022-08-22T07:49:13.637Z,993.48
2022-08-22T07:50:13.634Z,993.45
2022-08-22T07:51:12.622Z,993.45
2022-08-22T07:52:12.613Z,993.40
2022-08-22T07:53:13.448Z,993.48
2022-08-22T07:54:12.615Z,993.55
2022-08-22T07:55:12.609Z,993.50
2022-08-22T07:56:12.581Z,993.50
2022-08-22T07:57:12.577Z,993.43
2022-08-22T07:58:12.577Z,993.45
2022-08-22T07:59:13.239Z,993.42
2022-08-22T08:00:12.561Z,993.46
2022-08-22T08:01:12.601Z,993.44
2022-08-22T08:02:12.571Z,993.46
2022-08-22T08:03:12.541Z,993.43
2022-08-22T08:04:12.541Z,993.41
2022-08-22T08:05:12.536Z,993.40
2022-08-22T08:06:12.537Z,993.35
2022-08-22T08:07:12.613Z,993.29
2022-08-22T08:08:13.822Z,993.32
2022-08-22T08:09:12.513Z,993.33
2022-08-22T08:10:13.304Z,993.39
2022-08-22T08:11:13.492Z,993.28
2022-08-22T08:12:12.485Z,993.32
2022-08-22T08:13:12.478Z,993.30
2022-08-22T08:14:13.553Z,993.36
2022-08-22T08:15:12.485Z,993.35
2022-08-22T08:16:12.461Z,993.27
2022-08-22T08:17:12.449Z,993.30
2022-08-22T08:18:12.455Z,993.28
2022-08-22T08:19:12.440Z,993.28
2022-08-22T08:20:12.449Z,993.24
2022-08-22T08:21:12.429Z,993.24
2022-08-22T08:22:12.422Z,993.27
2022-08-22T08:23:12.409Z,993.27
2022-08-22T08:24:12.409Z,993.21
2022-08-22T08:25:12.406Z,993.25
2022-08-22T08:26:12.408Z,993.26
2022-08-22T08:27:12.411Z,993.18
2022-08-22T08:28:12.384Z,993.16
2022-08-22T08:29:12.373Z,993.16
2022-08-22T08:30:15.481Z,993.19
2022-08-22T08:31:13.374Z,993.15
2022-08-22T08:32:12.358Z,993.15
2022-08-22T08:33:26.106Z,993.18
2022-08-22T08:34:13.357Z,993.22
2022-08-22T08:35:12.342Z,993.12
2022-08-22T08:36:12.333Z,993.16
2022-08-22T08:37:12.802Z,993.16
2022-08-22T08:38:12.333Z,993.19
2022-08-22T08:39:12.349Z,993.19
2022-08-22T08:40:12.368Z,993.21
2022-08-22T08:41:12.300Z,993.19
2022-08-22T08:42:12.289Z,993.23
2022-08-22T08:43:12.313Z,993.22
2022-08-22T08:44:12.273Z,993.17
2022-08-22T08:45:12.272Z,993.18
2022-08-22T08:46:12.269Z,993.23
2022-08-22T08:47:12.261Z,993.20
2022-08-22T08:48:12.256Z,993.17
2022-08-22T08:49:12.273Z,993.23
2022-08-22T08:50:12.245Z,993.21
2022-08-22T08:51:12.237Z,993.21
2022-08-22T08:52:12.461Z,993.28
2022-08-22T08:53:12.212Z,993.28
2022-08-22T08:54:12.227Z,993.23
2022-08-22T08:55:21.710Z,993.21
2022-08-22T08:56:15.618Z,993.24
2022-08-22T08:57:13.197Z,993.20
2022-08-22T08:58:12.196Z,993.16
2022-08-22T08:59:12.189Z,993.19
2022-08-22T09:00:12.380Z,993.21
2022-08-22T09:01:12.239Z,993.22
2022-08-22T09:02:13.730Z,993.16
2022-08-22T09:03:15.846Z,993.16
2022-08-22T09:04:15.364Z,993.24
2022-08-22T09:05:12.168Z,993.12
2022-08-22T09:06:12.145Z,993.16
2022-08-22T09:07:12.147Z,993.18
2022-08-22T09:08:12.132Z,993.23
2022-08-22T09:09:12.135Z,993.23
2022-08-22T09:10:12.132Z,993.21
2022-08-22T09:11:12.131Z,993.20
2022-08-22T09:12:12.112Z,993.16
2022-08-22T09:13:12.982Z,993.15
2022-08-22T09:14:12.108Z,993.06
2022-08-22T09:15:14.437Z,993.15
2022-08-22T09:16:12.109Z,993.09
2022-08-22T09:17:12.089Z,993.07
2022-08-22T09:18:12.079Z,993.02
2022-08-22T09:19:12.070Z,993.02
2022-08-22T09:20:18.080Z,992.99
2022-08-22T09:21:13.072Z,993.00
2022-08-22T09:22:14.182Z,992.91
2022-08-22T09:23:12.044Z,992.90
2022-08-22T09:24:12.040Z,992.97
2022-08-22T09:25:12.035Z,992.90
2022-08-22T09:26:12.039Z,992.84
2022-08-22T09:27:12.061Z,992.78
2022-08-22T09:28:13.691Z,992.81
2022-08-22T09:29:12.029Z,992.81
2022-08-22T09:30:12.012Z,992.77
2022-08-22T09:31:16.942Z,992.81
2022-08-22T09:32:13.396Z,992.76
2022-08-22T09:33:11.992Z,992.76
2022-08-22T09:34:12.021Z,992.74
2022-08-22T09:35:11.989Z,992.80
2022-08-22T09:36:12.631Z,992.77
2022-08-22T09:37:13.936Z,992.73
2022-08-22T09:38:12.000Z,992.65
2022-08-22T09:39:11.972Z,992.67
2022-08-22T09:40:16.698Z,992.68
2022-08-22T09:41:13.981Z,992.66
2022-08-22T09:42:11.949Z,992.58
2022-08-22T09:43:11.990Z,992.55
2022-08-22T09:44:12.184Z,992.42
2022-08-22T09:45:11.938Z,992.38
2022-08-22T09:46:11.935Z,992.39
2022-08-22T09:47:11.928Z,992.33
2022-08-22T09:48:11.919Z,992.33
2022-08-22T09:49:11.942Z,992.34
2022-08-22T09:50:11.920Z,992.32
2022-08-22T09:51:31.205Z,992.32
2022-08-22T09:52:15.455Z,992.27
2022-08-22T09:53:12.881Z,992.31
2022-08-22T09:54:11.913Z,992.32
2022-08-22T09:55:15.963Z,992.31
2022-08-22T09:56:15.770Z,992.30
2022-08-22T09:57:14.005Z,992.25
2022-08-22T09:58:11.851Z,992.28
2022-08-22T09:59:11.856Z,992.21
2022-08-22T10:00:11.851Z,992.24
2022-08-22T10:01:11.989Z,992.29
2022-08-22T10:02:15.329Z,992.33
2022-08-22T10:03:11.831Z,992.25
2022-08-22T10:04:11.824Z,992.30
2022-08-22T10:05:11.828Z,992.27
2022-08-22T10:06:11.811Z,992.20
2022-08-22T10:07:12.265Z,992.25
2022-08-22T10:08:12.820Z,992.25
2022-08-22T10:09:11.803Z,992.19
2022-08-22T10:10:11.796Z,992.26
2022-08-22T10:11:11.792Z,992.24
2022-08-22T10:12:12.485Z,992.29
2022-08-22T10:13:11.800Z,992.29
2022-08-22T10:14:11.778Z,992.26
2022-08-22T10:15:11.802Z,992.27
2022-08-22T10:16:11.784Z,992.21
2022-08-22T10:17:11.768Z,992.20
2022-08-22T10:18:11.773Z,992.21
2022-08-22T10:19:11.809Z,992.18
2022-08-22T10:20:11.757Z,992.23
2022-08-22T10:21:11.800Z,992.17
2022-08-22T10:22:11.741Z,992.21
2022-08-22T10:23:11.747Z,992.12
2022-08-22T10:24:11.746Z,992.15
2022-08-22T10:25:11.743Z,992.17
2022-08-22T10:26:11.739Z,992.15
2022-08-22T10:27:12.777Z,992.17
2022-08-22T10:28:11.703Z,992.15
2022-08-22T10:29:11.710Z,992.15
2022-08-22T10:30:13.168Z,992.09
2022-08-22T10:31:11.682Z,992.08
2022-08-22T10:32:14.568Z,992.08
2022-08-22T10:33:12.209Z,992.03
2022-08-22T10:34:11.669Z,992.09
2022-08-22T10:35:11.693Z,992.04
2022-08-22T10:36:12.163Z,992.00
2022-08-22T10:37:11.670Z,992.01
2022-08-22T10:38:12.383Z,991.96
2022-08-22T10:39:12.027Z,991.91
2022-08-22T10:40:12.705Z,991.89
2022-08-22T10:41:11.650Z,991.84
2022-08-22T10:42:11.653Z,991.83
2022-08-22T10:43:11.638Z,991.85
2022-08-22T10:44:11.646Z,991.81
2022-08-22T10:45:11.625Z,991.82
2022-08-22T10:46:12.654Z,991.80
2022-08-22T10:47:11.679Z,991.82
2022-08-22T10:48:11.605Z,991.72
2022-08-22T10:49:14.316Z,991.65
2022-08-22T10:50:11.703Z,991.68
2022-08-22T10:51:11.614Z,991.65
2022-08-22T10:52:15.598Z,991.68
2022-08-22T10:53:12.592Z,991.66
2022-08-22T10:54:11.597Z,991.65
2022-08-22T10:55:11.573Z,991.53
2022-08-22T10:56:11.571Z,991.49
2022-08-22T10:57:11.566Z,991.50
2022-08-22T10:58:11.585Z,991.55
2022-08-22T10:59:11.573Z,991.47
2022-08-22T11:00:11.551Z,991.50
2022-08-22T11:01:38.106Z,991.51
2022-08-22T11:02:12.541Z,991.48
2022-08-22T11:03:15.119Z,991.47
2022-08-22T11:04:12.537Z,991.49
2022-08-22T11:05:11.550Z,991.48
2022-08-22T11:06:12.762Z,991.49
2022-08-22T11:07:11.522Z,991.52
2022-08-22T11:08:11.517Z,991.60
2022-08-22T11:09:11.525Z,991.63
2022-08-22T11:10:11.535Z,991.63
2022-08-22T11:11:11.504Z,991.72
2022-08-22T11:12:11.526Z,991.82
2022-08-22T11:13:11.523Z,991.75
2022-08-22T11:14:11.523Z,991.79
2022-08-22T11:15:11.502Z,991.75
2022-08-22T11:16:11.482Z,991.84
2022-08-22T11:17:23.627Z,991.81
2022-08-22T11:18:13.077Z,991.86
2022-08-22T11:19:14.962Z,991.81
2022-08-22T11:20:11.481Z,991.79
2022-08-22T11:21:11.454Z,991.80
2022-08-22T11:22:11.437Z,991.74
2022-08-22T11:23:12.315Z,991.67
2022-08-22T11:24:17.363Z,991.69
2022-08-22T11:25:12.458Z,991.70
2022-08-22T11:26:11.442Z,991.64
2022-08-22T11:27:13.145Z,991.67
2022-08-22T11:28:12.418Z,991.64
2022-08-22T11:29:13.587Z,991.62
2022-08-22T11:30:11.434Z,991.59
2022-08-22T11:31:12.404Z,991.60
2022-08-22T11:32:11.426Z,991.57
2022-08-22T11:33:11.409Z,991.64
2022-08-22T11:34:11.398Z,991.61
2022-08-22T11:35:11.411Z,991.63
2022-08-22T11:36:11.400Z,991.58
2022-08-22T11:37:11.541Z,991.60
2022-08-22T11:38:11.391Z,991.60
2022-08-22T11:39:18.292Z,991.62
2022-08-22T11:40:12.433Z,991.63
2022-08-22T11:41:11.369Z,991.59
2022-08-22T11:42:11.394Z,991.60
2022-08-22T11:43:17.955Z,991.62
2022-08-22T11:44:12.361Z,991.58
2022-08-22T11:45:14.855Z,991.57
2022-08-22T11:46:11.349Z,991.62
2022-08-22T11:47:11.365Z,991.60
2022-08-22T11:48:11.358Z,991.66
2022-08-22T11:49:11.338Z,991.64
2022-08-22T11:50:13.624Z,991.56
2022-08-22T11:51:13.350Z,991.58
2022-08-22T11:52:11.337Z,991.57
2022-08-22T11:53:11.309Z,991.50
2022-08-22T11:54:11.322Z,991.54
2022-08-22T11:55:11.309Z,991.60
2022-08-22T11:56:11.293Z,991.66
2022-08-22T11:57:12.317Z,991.80
2022-08-22T11:58:11.297Z,991.82
2022-08-22T11:59:11.296Z,991.88
2022-08-22T12:00:11.285Z,992.01
2022-08-22T12:01:17.011Z,991.94
2022-08-22T12:02:13.316Z,992.03
2022-08-22T12:03:11.269Z,992.06
2022-08-22T12:04:12.862Z,992.07
2022-08-22T12:05:11.258Z,992.09
2022-08-22T12:06:12.254Z,992.10
2022-08-22T12:07:11.253Z,992.04
2022-08-22T12:08:11.414Z,991.99
2022-08-22T12:09:11.238Z,992.05
2022-08-22T12:10:13.591Z,992.13
2022-08-22T12:11:11.217Z,992.07
2022-08-22T12:12:11.222Z,992.08
2022-08-22T12:13:11.229Z,992.05
2022-08-22T12:14:11.295Z,992.09
2022-08-22T12:15:11.210Z,992.16
2022-08-22T12:16:11.201Z,992.10
2022-08-22T12:17:11.194Z,992.09
2022-08-22T12:18:14.345Z,992.12
2022-08-22T12:19:12.238Z,992.08
2022-08-22T12:20:18.697Z,992.08
2022-08-22T12:21:13.177Z,992.09
2022-08-22T12:22:11.180Z,992.10